createdAt,value
2023-02-26T00:01:40.394Z,12.52
2023-02-26T00:04:08.627Z,15.32
2023-02-26T00:06:39.314Z,17.15
2023-02-26T00:09:06.901Z,15.70
2023-02-26T00:11:34.768Z,15.68
2023-02-26T00:14:01.934Z,25.85
2023-02-26T00:16:36.299Z,12.75
2023-02-26T00:19:07.147Z,13.50
2023-02-26T00:21:36.087Z,13.15
2023-02-26T00:24:03.481Z,13.23
2023-02-26T00:26:32.343Z,17.58
2023-02-26T00:28:59.706Z,16.00
2023-02-26T00:31:27.335Z,17.40
2023-02-26T00:33:56.719Z,17.58
2023-02-26T00:36:38.148Z,16.90
2023-02-26T00:39:23.361Z,20.13
2023-02-26T00:41:50.604Z,19.90
2023-02-26T00:44:19.232Z,18.40
2023-02-26T00:47:10.393Z,15.02
2023-02-26T00:50:08.236Z,16.98
2023-02-26T00:52:50.074Z,16.58
2023-02-26T00:55:16.913Z,21.38
2023-02-26T00:57:44.418Z,14.32
2023-02-26T01:00:13.128Z,11.65
2023-02-26T01:02:41.182Z,11.18
2023-02-26T01:05:09.592Z,20.45
2023-02-26T01:08:21.877Z,17.27
2023-02-26T01:10:49.158Z,19.90
2023-02-26T01:13:16.418Z,19.33
2023-02-26T01:15:52.488Z,17.40
2023-02-26T01:18:27.576Z,16.05
2023-02-26T01:21:05.177Z,21.55
2023-02-26T01:23:40.674Z,14.93
2023-02-26T01:26:17.176Z,18.45
2023-02-26T01:28:44.663Z,24.58
2023-02-26T01:31:29.949Z,22.00
2023-02-26T01:34:04.913Z,16.02
2023-02-26T01:36:40.589Z,14.77
2023-02-26T01:39:34.680Z,24.00
2023-02-26T01:42:20.409Z,14.18
2023-02-26T01:45:15.061Z,18.23
2023-02-26T01:48:04.506Z,15.03
2023-02-26T01:50:35.328Z,20.73
2023-02-26T01:53:24.583Z,16.38
2023-02-26T01:56:06.667Z,17.08
2023-02-26T01:58:36.372Z,16.48
2023-02-26T02:01:04.688Z,23.60
2023-02-26T02:03:36.497Z,22.25
2023-02-26T02:06:09.625Z,16.38
2023-02-26T02:08:36.691Z,21.80
2023-02-26T02:11:07.665Z,15.05
2023-02-26T02:14:07.235Z,21.77
2023-02-26T02:16:53.297Z,19.80
2023-02-26T02:19:55.837Z,19.83
2023-02-26T02:22:52.887Z,18.40
2023-02-26T02:25:50.162Z,19.73
2023-02-26T02:28:27.199Z,19.75
2023-02-26T02:31:09.154Z,14.68
2023-02-26T02:34:02.500Z,17.70
2023-02-26T02:36:34.843Z,14.70
2023-02-26T02:39:23.205Z,19.95
2023-02-26T02:41:57.535Z,15.18
2023-02-26T02:44:27.994Z,18.77
2023-02-26T02:46:58.693Z,17.55
2023-02-26T02:49:37.870Z,15.13
2023-02-26T02:52:15.836Z,15.75
2023-02-26T02:54:49.647Z,13.40
2023-02-26T02:57:23.709Z,18.77
2023-02-26T03:00:08.828Z,26.00
2023-02-26T03:05:48.211Z,22.27
2023-02-26T03:08:21.416Z,11.70
2023-02-26T03:10:48.787Z,14.68
2023-02-26T03:13:21.955Z,20.15
2023-02-26T03:15:56.096Z,20.50
2023-02-26T03:18:37.705Z,12.98
2023-02-26T03:21:12.926Z,13.68
2023-02-26T03:24:21.304Z,15.35
2023-02-26T03:27:15.780Z,19.80
2023-02-26T03:29:56.675Z,17.83
2023-02-26T03:32:38.061Z,22.45
2023-02-26T03:35:09.347Z,16.42
2023-02-26T03:37:42.124Z,25.27
2023-02-26T03:40:22.649Z,15.45
2023-02-26T03:42:57.415Z,18.05
2023-02-26T03:47:58.590Z,24.10
2023-02-26T03:50:51.969Z,18.00
2023-02-26T03:53:29.360Z,19.45
2023-02-26T03:56:20.806Z,15.88
2023-02-26T03:58:47.793Z,17.05
2023-02-26T04:01:22.794Z,15.38
2023-02-26T04:04:25.034Z,17.80
2023-02-26T04:06:54.324Z,16.42
2023-02-26T04:09:22.228Z,13.55
2023-02-26T04:11:51.770Z,18.95
2023-02-26T04:14:18.614Z,16.55
2023-02-26T04:16:46.177Z,17.98
2023-02-26T04:19:13.316Z,16.52
2023-02-26T04:21:40.447Z,16.98
2023-02-26T04:24:07.610Z,14.35
2023-02-26T04:26:34.432Z,19.85
2023-02-26T04:29:01.222Z,16.15
2023-02-26T04:31:28.030Z,15.13
2023-02-26T04:33:54.938Z,14.15
2023-02-26T04:36:22.663Z,26.10
2023-02-26T04:38:49.798Z,16.40
2023-02-26T04:41:16.643Z,20.05
2023-02-26T04:43:43.602Z,16.30
2023-02-26T04:46:10.468Z,20.58
2023-02-26T04:48:37.530Z,15.85
2023-02-26T04:51:04.921Z,19.98
2023-02-26T04:53:31.708Z,13.77
2023-02-26T04:55:58.516Z,19.27
2023-02-26T04:58:25.862Z,17.83
2023-02-26T05:00:56.722Z,12.15
2023-02-26T05:03:23.598Z,15.50
2023-02-26T05:05:50.504Z,18.48
2023-02-26T05:08:17.445Z,16.58
2023-02-26T05:10:44.376Z,21.20
2023-02-26T05:13:11.309Z,16.75
2023-02-26T05:15:38.141Z,20.17
2023-02-26T05:18:05.094Z,10.65
2023-02-26T05:20:31.939Z,13.35
2023-02-26T05:22:58.826Z,17.25
2023-02-26T05:25:25.750Z,20.58
2023-02-26T05:27:53.104Z,19.33
2023-02-26T05:30:19.985Z,13.45
2023-02-26T05:32:46.804Z,18.77
2023-02-26T05:35:13.974Z,15.88
2023-02-26T05:37:40.822Z,18.58
2023-02-26T05:40:11.114Z,16.48
2023-02-26T05:42:39.743Z,19.58
2023-02-26T05:45:08.310Z,11.95
2023-02-26T05:47:35.947Z,16.98
2023-02-26T05:50:05.417Z,13.90
2023-02-26T05:52:32.462Z,15.90
2023-02-26T05:54:59.474Z,16.88
2023-02-26T05:57:26.278Z,14.60
2023-02-26T05:59:53.224Z,13.50
2023-02-26T06:02:20.267Z,13.82
2023-02-26T06:04:47.098Z,19.95
2023-02-26T06:07:14.290Z,15.85
2023-02-26T06:09:41.113Z,15.85
2023-02-26T06:12:08.776Z,20.40
2023-02-26T06:14:36.534Z,17.40
2023-02-26T06:17:05.424Z,14.20
2023-02-26T06:19:32.910Z,19.10
2023-02-26T06:21:59.905Z,13.40
2023-02-26T06:24:26.841Z,18.45
2023-02-26T06:26:53.744Z,13.35
2023-02-26T06:29:21.060Z,17.35
2023-02-26T06:31:48.535Z,16.15
2023-02-26T06:34:16.053Z,15.77
2023-02-26T06:36:43.289Z,19.10
2023-02-26T06:39:10.289Z,17.50
2023-02-26T06:41:37.378Z,17.38
2023-02-26T06:44:04.361Z,21.75
2023-02-26T06:46:31.830Z,17.90
2023-02-26T06:48:58.651Z,18.95
2023-02-26T06:51:25.452Z,19.50
2023-02-26T06:53:52.262Z,17.30
2023-02-26T06:56:19.334Z,18.92
2023-02-26T06:58:46.104Z,19.98
2023-02-26T07:01:13.267Z,14.98
2023-02-26T07:03:40.254Z,17.02
2023-02-26T07:06:25.999Z,14.27
2023-02-26T07:08:53.260Z,18.83
2023-02-26T07:11:20.074Z,15.57
2023-02-26T07:13:46.903Z,19.98
2023-02-26T07:16:13.880Z,22.25
2023-02-26T07:18:41.045Z,15.80
2023-02-26T07:21:07.878Z,15.85
2023-02-26T07:23:34.872Z,14.90
2023-02-26T07:26:02.528Z,17.70
2023-02-26T07:28:29.348Z,19.30
2023-02-26T07:30:57.350Z,17.23
2023-02-26T07:33:25.230Z,16.83
2023-02-26T07:35:52.098Z,15.50
2023-02-26T07:38:19.718Z,19.40
2023-02-26T07:40:47.827Z,24.45
2023-02-26T07:43:14.700Z,18.50
2023-02-26T07:45:41.532Z,16.23
2023-02-26T07:48:08.440Z,19.70
2023-02-26T07:50:35.230Z,19.50
2023-02-26T07:53:02.112Z,21.10
2023-02-26T07:55:30.050Z,25.30
2023-02-26T07:57:56.871Z,17.45
2023-02-26T08:00:23.988Z,20.55
2023-02-26T08:02:50.769Z,21.60
2023-02-26T08:05:17.845Z,21.27
2023-02-26T08:07:44.628Z,20.95
2023-02-26T08:10:12.760Z,23.80
2023-02-26T08:12:39.899Z,22.10
2023-02-26T08:15:07.714Z,17.98
2023-02-26T08:17:34.586Z,14.85
2023-02-26T08:20:01.684Z,23.00
2023-02-26T08:22:28.502Z,18.38
2023-02-26T08:24:56.122Z,21.02
2023-02-26T08:27:22.926Z,20.15
2023-02-26T08:29:50.506Z,19.90
2023-02-26T08:32:20.116Z,16.95
2023-02-26T08:34:47.361Z,20.40
2023-02-26T08:37:15.124Z,19.63
2023-02-26T08:39:42.041Z,17.27
2023-02-26T08:42:10.298Z,18.42
2023-02-26T08:44:37.150Z,16.27
2023-02-26T08:47:04.094Z,26.52
2023-02-26T08:49:31.692Z,20.77
2023-02-26T08:51:58.678Z,16.65
2023-02-26T08:54:25.703Z,13.32
2023-02-26T08:56:55.934Z,15.73
2023-02-26T08:59:22.796Z,13.32
2023-02-26T09:01:49.828Z,20.38
2023-02-26T09:04:16.877Z,19.05
2023-02-26T09:06:44.077Z,17.67
2023-02-26T09:09:11.098Z,15.05
2023-02-26T09:11:37.955Z,16.10
2023-02-26T09:14:05.534Z,18.65
2023-02-26T09:16:35.893Z,16.83
2023-02-26T09:19:04.944Z,17.10
2023-02-26T09:21:32.109Z,13.63
2023-02-26T09:23:58.989Z,20.42
2023-02-26T09:26:26.619Z,14.30
2023-02-26T09:28:53.696Z,17.17
2023-02-26T09:31:20.713Z,19.27
2023-02-26T09:33:47.869Z,17.05
2023-02-26T09:36:15.284Z,17.20
2023-02-26T09:38:43.483Z,26.60
2023-02-26T09:41:21.876Z,25.77
2023-02-26T09:43:58.830Z,16.48
2023-02-26T09:47:18.362Z,12.85
2023-02-26T09:50:10.018Z,15.13
2023-02-26T09:53:03.973Z,16.23
2023-02-26T09:55:38.955Z,14.57
2023-02-26T10:01:14.526Z,24.80
2023-02-26T10:04:08.688Z,14.48
2023-02-26T10:06:41.429Z,14.38
2023-02-26T10:09:20.257Z,14.30
2023-02-26T10:12:01.325Z,13.75
2023-02-26T10:14:42.747Z,13.52
2023-02-26T10:17:25.100Z,18.45
2023-02-26T10:20:00.405Z,14.20
2023-02-26T10:22:45.217Z,14.88
2023-02-26T10:25:22.746Z,14.27
2023-02-26T10:28:38.629Z,10.90
2023-02-26T10:31:34.713Z,16.08
2023-02-26T10:34:32.957Z,16.50
2023-02-26T10:37:59.297Z,10.73
2023-02-26T10:40:46.109Z,8.63
2023-02-26T10:43:23.436Z,21.30
2023-02-26T10:45:59.342Z,16.90
2023-02-26T10:49:29.979Z,14.60
2023-02-26T10:51:58.369Z,15.18
2023-02-26T10:54:39.695Z,16.15
2023-02-26T10:57:19.263Z,12.70
2023-02-26T10:59:46.076Z,16.58
2023-02-26T11:02:46.897Z,18.90
2023-02-26T11:05:20.701Z,15.57
2023-02-26T11:07:52.606Z,17.13
2023-02-26T11:10:27.737Z,15.60
2023-02-26T11:12:54.829Z,9.93
2023-02-26T11:15:26.418Z,13.77
2023-02-26T11:17:58.919Z,10.60
2023-02-26T11:20:43.145Z,14.77
2023-02-26T11:23:23.386Z,9.77
2023-02-26T11:26:05.488Z,13.23
2023-02-26T11:28:45.410Z,13.20
2023-02-26T11:31:16.652Z,11.50
2023-02-26T11:33:59.380Z,10.43
2023-02-26T11:36:31.865Z,16.08
2023-02-26T11:39:05.448Z,10.23
2023-02-26T11:41:38.432Z,9.63
2023-02-26T11:44:15.061Z,13.02
2023-02-26T11:46:51.780Z,7.10
2023-02-26T11:49:23.173Z,11.45
2023-02-26T11:52:08.931Z,9.13
2023-02-26T11:54:38.984Z,15.45
2023-02-26T11:57:21.424Z,11.93
2023-02-26T11:59:52.440Z,11.38
2023-02-26T12:02:24.291Z,9.75
2023-02-26T12:05:01.166Z,14.98
2023-02-26T12:07:28.450Z,9.65
2023-02-26T12:09:55.329Z,14.40
2023-02-26T12:12:38.987Z,13.02
2023-02-26T12:15:23.424Z,11.13
2023-02-26T12:18:03.712Z,9.35
2023-02-26T12:20:43.354Z,11.23
2023-02-26T12:23:34.808Z,10.35
2023-02-26T12:26:07.487Z,15.43
2023-02-26T12:28:39.954Z,9.23
2023-02-26T12:31:40.311Z,10.98
2023-02-26T12:34:33.635Z,9.95
2023-02-26T12:37:25.316Z,10.55
2023-02-26T12:40:31.118Z,10.07
2023-02-26T12:43:36.495Z,13.10
2023-02-26T12:46:44.231Z,7.87
2023-02-26T12:49:51.390Z,10.65
2023-02-26T12:53:02.405Z,8.82
2023-02-26T12:55:41.330Z,15.32
2023-02-26T12:58:36.010Z,9.63
2023-02-26T13:01:21.878Z,14.50
2023-02-26T13:04:39.793Z,12.80
2023-02-26T13:07:50.210Z,15.50
2023-02-26T13:11:01.545Z,9.95
2023-02-26T13:13:55.384Z,11.13
2023-02-26T13:17:03.553Z,17.40
2023-02-26T13:19:55.856Z,11.07
2023-02-26T13:22:43.869Z,9.88
2023-02-26T13:25:26.367Z,11.73
2023-02-26T13:27:57.601Z,14.38
2023-02-26T13:30:43.586Z,10.77
2023-02-26T13:33:20.740Z,10.23
2023-02-26T13:35:50.508Z,14.10
2023-02-26T13:38:29.125Z,11.10
2023-02-26T13:41:14.667Z,11.18
2023-02-26T13:46:48.137Z,11.88
2023-02-26T13:49:27.249Z,13.52
2023-02-26T13:51:55.530Z,10.60
2023-02-26T13:54:22.600Z,11.82
2023-02-26T13:57:23.110Z,9.68
2023-02-26T14:00:15.690Z,11.77
2023-02-26T14:02:59.701Z,9.85
2023-02-26T14:06:08.069Z,10.00
2023-02-26T14:08:40.443Z,8.75
2023-02-26T14:11:42.856Z,10.43
2023-02-26T14:14:35.668Z,6.97
2023-02-26T14:17:08.525Z,8.70
2023-02-26T14:19:52.450Z,6.88
2023-02-26T14:22:26.374Z,7.35
2023-02-26T14:25:22.814Z,8.68
2023-02-26T14:27:50.897Z,8.13
2023-02-26T14:30:34.795Z,7.78
2023-02-26T14:33:03.514Z,10.30
2023-02-26T14:35:38.624Z,11.63
2023-02-26T14:38:32.625Z,7.28
2023-02-26T14:41:09.673Z,6.55
2023-02-26T14:43:59.000Z,10.05
2023-02-26T14:46:26.153Z,13.18
2023-02-26T14:48:53.277Z,8.70
2023-02-26T14:51:42.104Z,8.80
2023-02-26T14:54:48.917Z,10.05
2023-02-26T14:57:28.019Z,12.00
2023-02-26T15:00:31.974Z,14.85
2023-02-26T15:03:34.241Z,8.55
2023-02-26T15:06:22.888Z,12.07
2023-02-26T15:09:12.063Z,8.35
2023-02-26T15:12:01.112Z,8.43
2023-02-26T15:14:53.529Z,10.60
2023-02-26T15:17:32.210Z,14.07
2023-02-26T15:20:11.023Z,8.43
2023-02-26T15:22:51.456Z,13.15
2023-02-26T15:25:39.376Z,6.60
2023-02-26T15:28:11.338Z,7.90
2023-02-26T15:30:38.622Z,7.35
2023-02-26T15:33:13.254Z,9.13
2023-02-26T15:35:40.661Z,14.00
2023-02-26T15:38:09.295Z,11.90
2023-02-26T15:40:40.186Z,11.93
2023-02-26T15:43:10.394Z,10.38
2023-02-26T15:45:44.991Z,9.27
2023-02-26T15:48:20.609Z,13.38
2023-02-26T15:50:53.797Z,7.07
2023-02-26T15:53:49.609Z,8.65
2023-02-26T15:59:01.147Z,10.27
2023-02-26T16:01:31.002Z,12.95
2023-02-26T16:04:01.692Z,7.95
2023-02-26T16:06:47.845Z,8.30
2023-02-26T16:09:26.619Z,10.52
2023-02-26T16:12:01.170Z,15.77
2023-02-26T16:14:36.167Z,10.10
2023-02-26T16:19:39.383Z,6.97
2023-02-26T16:22:31.720Z,10.82
2023-02-26T16:25:08.453Z,13.60
2023-02-26T16:27:36.358Z,14.95
2023-02-26T16:30:05.984Z,9.25
2023-02-26T16:32:35.568Z,5.65
2023-02-26T16:35:15.819Z,8.85
2023-02-26T16:37:50.141Z,12.90
2023-02-26T16:40:33.737Z,7.97
2023-02-26T16:43:06.188Z,10.60
2023-02-26T16:45:36.340Z,11.32
2023-02-26T16:48:10.219Z,8.23
2023-02-26T16:50:38.106Z,15.13
2023-02-26T16:53:17.647Z,10.93
2023-02-26T16:55:52.641Z,10.98
2023-02-26T17:00:53.446Z,9.73
2023-02-26T17:03:24.076Z,12.07
2023-02-26T17:05:58.386Z,10.80
2023-02-26T17:08:42.698Z,11.55
2023-02-26T17:11:20.848Z,7.35
2023-02-26T17:14:04.559Z,17.88
2023-02-26T17:16:31.444Z,16.52
2023-02-26T17:18:58.569Z,15.15
2023-02-26T17:21:25.630Z,14.45
2023-02-26T17:23:52.841Z,12.48
2023-02-26T17:26:19.793Z,13.00
2023-02-26T17:28:46.719Z,8.10
2023-02-26T17:31:15.284Z,10.60
2023-02-26T17:33:43.529Z,17.77
2023-02-26T17:36:16.783Z,12.00
2023-02-26T17:38:47.195Z,15.05
2023-02-26T17:41:18.102Z,14.68
2023-02-26T17:43:45.467Z,10.07
2023-02-26T17:46:14.066Z,16.02
2023-02-26T17:48:41.019Z,16.15
2023-02-26T17:51:09.616Z,13.32
2023-02-26T17:53:41.894Z,21.00
2023-02-26T17:56:27.124Z,14.80
2023-02-26T18:01:24.332Z,14.65
2023-02-26T18:03:51.492Z,13.43
2023-02-26T18:06:18.630Z,15.95
2023-02-26T18:08:46.887Z,12.57
2023-02-26T18:11:20.510Z,10.02
2023-02-26T18:13:47.954Z,8.05
2023-02-26T18:16:22.561Z,8.73
2023-02-26T18:18:49.821Z,8.82
2023-02-26T18:21:16.602Z,11.52
2023-02-26T18:23:43.473Z,10.45
2023-02-26T18:26:11.723Z,10.60
2023-02-26T18:28:38.843Z,5.03
2023-02-26T18:31:09.359Z,14.57
2023-02-26T18:33:38.970Z,12.73
2023-02-26T18:36:06.596Z,12.88
2023-02-26T18:38:34.786Z,13.68
2023-02-26T18:41:02.375Z,11.30
2023-02-26T18:43:30.531Z,15.18
2023-02-26T18:46:01.544Z,10.73
2023-02-26T18:48:28.877Z,13.13
2023-02-26T18:50:56.133Z,14.05
2023-02-26T18:53:24.774Z,14.57
2023-02-26T18:55:53.662Z,11.95
2023-02-26T18:58:22.066Z,9.40
2023-02-26T19:00:49.173Z,11.88
2023-02-26T19:03:16.518Z,14.18
2023-02-26T19:05:43.393Z,16.08
2023-02-26T19:08:11.401Z,15.93
2023-02-26T19:10:39.185Z,23.98
2023-02-26T19:13:06.158Z,28.42
2023-02-26T19:15:33.127Z,26.52
2023-02-26T19:17:59.988Z,28.90
2023-02-26T19:20:26.949Z,21.65
2023-02-26T19:22:53.819Z,23.02
2023-02-26T19:25:24.512Z,24.77
2023-02-26T19:27:53.770Z,24.23
2023-02-26T19:30:23.388Z,30.35
2023-02-26T19:32:51.893Z,25.60
2023-02-26T19:35:19.778Z,30.83
2023-02-26T19:37:47.202Z,30.95
2023-02-26T19:40:17.024Z,30.67
2023-02-26T19:42:44.828Z,38.40
2023-02-26T19:45:14.068Z,43.83
2023-02-26T19:47:41.161Z,38.83
2023-02-26T19:50:09.937Z,41.03
2023-02-26T19:52:37.493Z,40.53
2023-02-26T19:55:09.238Z,37.75
2023-02-26T19:57:36.810Z,30.88
2023-02-26T20:00:05.790Z,29.58
2023-02-26T20:02:33.091Z,31.60
2023-02-26T20:05:00.105Z,44.10
2023-02-26T20:07:27.162Z,42.05
2023-02-26T20:09:53.935Z,44.63
2023-02-26T20:12:21.343Z,45.72
2023-02-26T20:14:48.344Z,37.85
2023-02-26T20:17:15.281Z,43.35
2023-02-26T20:19:42.282Z,48.10
2023-02-26T20:22:09.127Z,39.63
2023-02-26T20:24:36.525Z,42.70
2023-02-26T20:27:03.601Z,35.10
2023-02-26T20:29:30.963Z,39.10
2023-02-26T20:31:59.298Z,34.13
2023-02-26T20:34:26.657Z,26.00
2023-02-26T20:36:55.800Z,24.63
2023-02-26T20:39:23.731Z,27.65
2023-02-26T20:41:50.980Z,20.02
2023-02-26T20:44:18.095Z,17.63
2023-02-26T20:46:45.186Z,18.98
2023-02-26T20:49:12.335Z,20.83
2023-02-26T20:51:41.250Z,20.17
2023-02-26T20:54:10.106Z,23.80
2023-02-26T20:56:36.980Z,26.98
2023-02-26T20:59:03.862Z,26.15
2023-02-26T21:01:35.738Z,28.42
2023-02-26T21:04:08.861Z,31.23
2023-02-26T21:06:37.016Z,29.15
2023-02-26T21:09:05.753Z,48.92
2023-02-26T21:11:36.641Z,72.60
2023-02-26T21:14:06.120Z,52.85
2023-02-26T21:16:33.155Z,30.58
2023-02-26T21:19:02.319Z,31.27
2023-02-26T21:21:29.440Z,27.50
2023-02-26T21:23:57.024Z,26.88
2023-02-26T21:26:24.356Z,19.92
2023-02-26T21:28:51.166Z,23.38
2023-02-26T21:31:20.304Z,23.15
2023-02-26T21:33:47.276Z,37.35
2023-02-26T21:36:14.620Z,30.77
2023-02-26T21:38:42.724Z,26.50
2023-02-26T21:41:09.550Z,22.38
2023-02-26T21:43:36.599Z,22.25
2023-02-26T21:46:04.325Z,21.95
2023-02-26T21:48:31.230Z,23.75
2023-02-26T21:50:59.958Z,18.80
2023-02-26T21:53:27.974Z,24.13
2023-02-26T21:55:55.746Z,23.77
2023-02-26T21:58:22.816Z,19.80
2023-02-26T22:00:50.132Z,21.55
2023-02-26T22:03:17.472Z,20.13
2023-02-26T22:05:44.496Z,19.75
2023-02-26T22:08:11.479Z,19.83
2023-02-26T22:10:38.733Z,24.45
2023-02-26T22:13:05.527Z,26.38
2023-02-26T22:15:32.439Z,24.23
2023-02-26T22:18:00.401Z,28.17
2023-02-26T22:20:28.468Z,23.13
2023-02-26T22:22:58.189Z,25.30
2023-02-26T22:25:26.742Z,26.52
2023-02-26T22:27:55.681Z,24.40
2023-02-26T22:30:24.131Z,20.70
2023-02-26T22:32:51.629Z,25.70
2023-02-26T22:35:20.876Z,22.25
2023-02-26T22:37:49.524Z,26.33
2023-02-26T22:40:17.237Z,20.02
2023-02-26T22:42:45.891Z,22.05
2023-02-26T22:45:17.696Z,20.85
2023-02-26T22:47:45.851Z,24.02
2023-02-26T22:50:15.352Z,24.65
2023-02-26T22:52:43.504Z,20.52
2023-02-26T22:55:11.897Z,27.23
2023-02-26T22:57:39.009Z,23.40
2023-02-26T23:00:12.436Z,27.17
2023-02-26T23:02:39.468Z,21.45
2023-02-26T23:05:09.495Z,23.70
2023-02-26T23:07:39.116Z,19.55
2023-02-26T23:10:09.074Z,23.35
2023-02-26T23:12:36.290Z,22.80
2023-02-26T23:15:03.320Z,17.80
2023-02-26T23:17:30.540Z,17.88
2023-02-26T23:19:57.690Z,20.08
2023-02-26T23:22:24.580Z,24.50
2023-02-26T23:24:51.503Z,20.80
2023-02-26T23:27:18.940Z,33.38
2023-02-26T23:29:45.920Z,36.28
2023-02-26T23:32:14.477Z,30.15
2023-02-26T23:34:41.470Z,29.65
2023-02-26T23:37:08.426Z,32.28
2023-02-26T23:39:35.198Z,28.73
2023-02-26T23:42:02.044Z,31.00
2023-02-26T23:44:29.079Z,29.33
2023-02-26T23:46:55.886Z,23.65
2023-02-26T23:49:22.665Z,24.40
2023-02-26T23:51:49.464Z,24.42
2023-02-26T23:54:16.323Z,25.83
2023-02-26T23:56:43.090Z,28.40
2023-02-26T23:59:10.338Z,21.77
